Prosperity — WDB9911 — position and weather

sailwx.info

Track history (hours):
 
Tides and Currents Weather Stations Pressure Air Temp Water Temp Dewpoint Dewpoint Depression Visibility Wind Speed Wind Dir Waves Ship Positions

Prosperity

Owner: American River Transportation Company, St Louis, MO. More information available from US FCC via Universal Licensing System and Coast Guard Vessel Documentation Center.

Last reported at 2017-Aug-23 15:30 UTC. Time now 2017-Aug-23 15:34 UTC.
Position N 38°55' W 090°30'.

Length 51 m; draft 3.4 m.

Type: Towing. MMSI: 366984960.

Date/timePositionNaut miles runAvg speedWind from/ knotsBaromVisibWave heightAir tempDewpointWater temp
2017-Aug-23 15:30N 38°55' W 090°30'2 4.2
2017-Aug-23 15:00N 38°57' W 090°28'1 0.5
2017-Aug-23 14:00N 38°57' W 090°28'2 3.9
2017-Aug-23 13:30N 38°58' W 090°25'1 2.3
2017-Aug-23 13:00N 38°58' W 090°24'0 0.0
2017-Aug-23 12:30N 38°58' W 090°24'0 0.0
2017-Aug-23 12:00N 38°58' W 090°24'0 0.4
2017-Aug-23 11:30N 38°58' W 090°24'2 3.8
2017-Aug-23 11:00N 38°57' W 090°22'2 4.8
2017-Aug-23 10:30N 38°55' W 090°19'3 4.5
2017-Aug-23 09:56N 38°55' W 090°16'3 4.2
2017-Aug-23 09:18N 38°54' W 090°13'1 4.3
2017-Aug-23 08:59N 38°53' W 090°11'2 0.0
2017-Aug-21 20:10N 38°52' W 090°09'  
2017-Aug-15 11:21N 38°58' W 090°33'2 4.9
2017-Aug-15 11:00N 38°57' W 090°31'2 4.9
2017-Aug-15 10:30N 38°58' W 090°28'2 4.7
2017-Aug-15 10:00N 38°58' W 090°25'2 3.7
2017-Aug-15 09:30N 38°58' W 090°23'1 1.8
2017-Aug-15 09:00N 38°57' W 090°22'2 4.7
2017-Aug-15 08:30N 38°56' W 090°20'  
Track history (hours):
 
Tides and Currents Weather Stations Pressure Air Temp Water Temp Dewpoint Dewpoint Depression Visibility Wind Speed Wind Dir Waves Ship Positions

Prosperity

Owner: American River Transportation Company, St Louis, MO. More information available from US FCC via Universal Licensing System and Coast Guard Vessel Documentation Center.

Last reported at 2017-Aug-23 15:30 UTC. Time now 2017-Aug-23 15:34 UTC.
Position N 38°55' W 090°30'.

Length 51 m; draft 3.4 m.

Type: Towing. MMSI: 366984960.

Date/timePositionNaut miles runAvg speedWind from/ knotsBaromVisibWave heightAir tempDewpointWater temp
2017-Aug-23 15:30N 38°55' W 090°30'2 4.2
2017-Aug-23 15:00N 38°57' W 090°28'1 0.5
2017-Aug-23 14:00N 38°57' W 090°28'2 3.9
2017-Aug-23 13:30N 38°58' W 090°25'1 2.3
2017-Aug-23 13:00N 38°58' W 090°24'0 0.0
2017-Aug-23 12:30N 38°58' W 090°24'0 0.0
2017-Aug-23 12:00N 38°58' W 090°24'0 0.4
2017-Aug-23 11:30N 38°58' W 090°24'2 3.8
2017-Aug-23 11:00N 38°57' W 090°22'2 4.8
2017-Aug-23 10:30N 38°55' W 090°19'3 4.5
2017-Aug-23 09:56N 38°55' W 090°16'3 4.2
2017-Aug-23 09:18N 38°54' W 090°13'1 4.3
2017-Aug-23 08:59N 38°53' W 090°11'2 0.0
2017-Aug-21 20:10N 38°52' W 090°09'  
2017-Aug-15 11:21N 38°58' W 090°33'2 4.9
2017-Aug-15 11:00N 38°57' W 090°31'2 4.9
2017-Aug-15 10:30N 38°58' W 090°28'2 4.7
2017-Aug-15 10:00N 38°58' W 090°25'2 3.7
2017-Aug-15 09:30N 38°58' W 090°23'1 1.8
2017-Aug-15 09:00N 38°57' W 090°22'2 4.7
2017-Aug-15 08:30N 38°56' W 090°20'  

Dump ship's entire track history